createdAt,value
2023-03-27T04:50:56.767Z,10.00
2023-03-27T04:54:00.286Z,9.10
2023-03-27T04:57:03.897Z,8.95
2023-03-27T05:00:16.202Z,10.13
2023-03-27T05:03:20.583Z,9.50
2023-03-27T05:06:26.997Z,8.63
2023-03-27T05:09:30.901Z,9.70
2023-03-27T05:12:34.200Z,10.10
2023-03-27T05:15:39.288Z,9.02
2023-03-27T05:18:45.094Z,8.43
2023-03-27T05:21:49.555Z,9.30
2023-03-27T05:24:53.929Z,9.30
2023-03-27T05:27:59.906Z,9.98
2023-03-27T05:31:05.808Z,9.93
2023-03-27T05:34:09.181Z,11.80
2023-03-27T05:37:19.508Z,10.37
2023-03-27T05:40:25.929Z,9.33
2023-03-27T05:43:29.288Z,9.82
2023-03-27T05:46:32.598Z,11.13
2023-03-27T05:49:36.728Z,8.25
2023-03-27T05:52:41.854Z,10.60
2023-03-27T05:55:47.903Z,10.83
2023-03-27T05:58:55.076Z,11.80
2023-03-27T06:01:59.246Z,10.57
2023-03-27T06:05:07.694Z,8.68
2023-03-27T06:08:12.647Z,9.97
2023-03-27T06:11:18.138Z,11.17
2023-03-27T06:14:21.360Z,8.75
2023-03-27T06:17:27.694Z,8.95
2023-03-27T06:20:31.582Z,7.70
2023-03-27T06:23:36.172Z,8.67
2023-03-27T06:26:39.338Z,9.00
2023-03-27T06:29:58.083Z,9.27
2023-03-27T06:33:09.058Z,9.52
2023-03-27T06:36:15.673Z,9.05
2023-03-27T06:39:20.584Z,8.67
2023-03-27T06:42:24.833Z,9.20
2023-03-27T06:45:29.996Z,9.55
2023-03-27T06:48:33.160Z,11.55
2023-03-27T06:51:37.090Z,7.30
2023-03-27T06:55:15.038Z,7.80
2023-03-27T06:58:20.089Z,8.20
2023-03-27T07:01:27.196Z,10.52
2023-03-27T07:04:30.638Z,9.32
2023-03-27T07:07:41.544Z,10.68
2023-03-27T07:11:07.377Z,8.83
2023-03-27T07:14:14.746Z,8.97
2023-03-27T07:17:17.917Z,9.10
2023-03-27T07:20:23.005Z,8.15
2023-03-27T07:23:27.857Z,9.38
2023-03-27T07:26:33.756Z,8.63
2023-03-27T07:29:37.818Z,8.50
2023-03-27T07:32:42.022Z,7.90
2023-03-27T07:35:47.045Z,9.52
2023-03-27T07:38:50.336Z,7.72
2023-03-27T07:42:30.687Z,12.73
2023-03-27T07:45:37.857Z,12.13
2023-03-27T07:48:42.830Z,14.38
2023-03-27T07:51:47.465Z,11.98
2023-03-27T07:54:56.417Z,13.80
2023-03-27T07:58:02.482Z,14.43
2023-03-27T08:01:08.038Z,12.10
2023-03-27T08:04:14.435Z,14.10
2023-03-27T08:07:35.502Z,13.57
2023-03-27T08:10:42.662Z,16.45
2023-03-27T08:13:46.163Z,13.13
2023-03-27T08:16:54.351Z,13.97
2023-03-27T08:20:02.214Z,14.32
2023-03-27T08:23:05.843Z,14.10
2023-03-27T08:26:10.530Z,16.80
2023-03-27T08:29:13.849Z,15.33
2023-03-27T08:32:20.867Z,13.47
2023-03-27T08:35:42.641Z,13.23
2023-03-27T08:38:47.420Z,13.15
2023-03-27T08:41:55.189Z,11.23
2023-03-27T08:44:59.139Z,14.33
2023-03-27T08:48:09.205Z,11.40
2023-03-27T08:51:19.270Z,13.25
2023-03-27T08:54:25.308Z,10.13
2023-03-27T08:57:31.604Z,11.82
2023-03-27T09:00:40.543Z,10.47
2023-03-27T09:03:57.302Z,10.67
2023-03-27T09:07:06.526Z,11.20
2023-03-27T09:10:17.506Z,13.05
2023-03-27T09:13:31.473Z,7.85
2023-03-27T09:16:41.732Z,7.60
2023-03-27T09:19:53.109Z,8.53
2023-03-27T09:23:06.721Z,6.30
2023-03-27T09:26:13.363Z,6.40
2023-03-27T09:29:20.674Z,6.07
2023-03-27T09:32:24.940Z,5.70
2023-03-27T09:35:29.863Z,5.80
2023-03-27T09:38:37.060Z,5.53
2023-03-27T09:41:44.119Z,5.20
2023-03-27T09:44:51.435Z,5.57
2023-03-27T09:47:59.636Z,4.73
2023-03-27T09:51:07.892Z,5.23
2023-03-27T09:54:14.421Z,4.57
2023-03-27T09:57:18.401Z,4.85
2023-03-27T10:00:32.595Z,5.20
2023-03-27T10:03:40.570Z,4.70
2023-03-27T10:06:48.435Z,4.60
2023-03-27T10:10:08.136Z,4.85
2023-03-27T10:13:14.179Z,4.60
2023-03-27T10:16:21.668Z,6.43
2023-03-27T10:19:29.035Z,4.67
2023-03-27T10:22:38.672Z,6.37
2023-03-27T10:25:56.117Z,5.10
2023-03-27T10:29:05.769Z,5.57
2023-03-27T10:32:09.489Z,5.85
2023-03-27T10:35:24.870Z,6.10
2023-03-27T10:38:32.976Z,6.20
2023-03-27T10:41:42.367Z,6.25
2023-03-27T10:44:56.583Z,6.65
2023-03-27T10:48:02.798Z,5.72
2023-03-27T10:51:13.543Z,5.10
2023-03-27T10:54:34.193Z,5.30
2023-03-27T10:57:38.261Z,4.57
2023-03-27T11:00:49.707Z,3.90
2023-03-27T11:04:00.306Z,4.90
2023-03-27T11:07:20.881Z,4.50
2023-03-27T11:10:35.083Z,4.30
2023-03-27T11:13:43.106Z,3.90
2023-03-27T11:16:52.385Z,4.28
2023-03-27T11:20:07.335Z,5.88
2023-03-27T11:23:16.927Z,6.43
2023-03-27T11:26:25.391Z,6.63
2023-03-27T11:29:33.715Z,3.97
2023-03-27T11:32:44.372Z,8.23
2023-03-27T11:35:54.975Z,5.97
2023-03-27T11:39:08.538Z,5.47
2023-03-27T11:42:17.503Z,4.13
2023-03-27T11:45:25.127Z,5.25
2023-03-27T11:48:53.865Z,5.18
2023-03-27T11:52:06.095Z,8.65
2023-03-27T11:55:17.515Z,5.80
2023-03-27T11:58:30.803Z,5.37
2023-03-27T12:01:40.984Z,8.68
2023-03-27T12:04:51.429Z,5.65
2023-03-27T12:08:04.858Z,6.15
2023-03-27T12:11:12.241Z,7.00
2023-03-27T12:14:40.775Z,4.90
2023-03-27T12:17:55.063Z,5.13
2023-03-27T12:21:18.130Z,5.03
2023-03-27T12:24:40.550Z,4.85
2023-03-27T12:27:59.835Z,4.50
2023-03-27T12:31:20.896Z,5.83
2023-03-27T12:34:42.901Z,3.50
2023-03-27T12:37:51.720Z,3.83
2023-03-27T12:41:04.047Z,3.70
2023-03-27T12:44:07.706Z,3.50
2023-03-27T12:47:22.941Z,4.07
2023-03-27T12:50:32.831Z,4.97
2023-03-27T12:53:56.832Z,4.75
2023-03-27T12:57:05.992Z,3.30
2023-03-27T13:00:21.891Z,3.83
2023-03-27T13:03:45.047Z,3.47
2023-03-27T13:06:57.190Z,5.65
2023-03-27T13:10:24.296Z,5.00
2023-03-27T13:13:59.597Z,5.93
2023-03-27T13:17:24.132Z,5.77
2023-03-27T13:20:39.234Z,5.93
2023-03-27T13:23:57.472Z,5.50
2023-03-27T13:27:36.309Z,6.88
2023-03-27T13:30:50.799Z,4.78
2023-03-27T13:34:20.888Z,4.17
2023-03-27T13:38:18.779Z,4.73
2023-03-27T13:45:49.553Z,4.00
2023-03-27T13:49:08.243Z,4.30
2023-03-27T13:52:43.436Z,4.00
2023-03-27T13:56:28.262Z,4.10
2023-03-27T13:59:53.029Z,4.65
2023-03-27T14:03:35.858Z,5.68
2023-03-27T14:07:07.845Z,5.13
2023-03-27T14:10:34.449Z,7.13
2023-03-27T14:13:54.034Z,5.67
2023-03-27T14:17:17.484Z,6.38
2023-03-27T14:20:28.128Z,4.47
2023-03-27T14:23:39.776Z,5.00
2023-03-27T14:26:45.394Z,5.53
2023-03-27T14:30:07.527Z,4.87
2023-03-27T14:33:20.600Z,5.32
2023-03-27T14:36:30.271Z,5.28
2023-03-27T14:39:37.950Z,5.30
2023-03-27T14:42:41.119Z,5.60
2023-03-27T14:45:49.323Z,4.93
2023-03-27T14:48:56.047Z,6.45
2023-03-27T14:52:06.298Z,4.45
2023-03-27T14:55:14.885Z,4.97
2023-03-27T14:58:19.919Z,4.83
2023-03-27T15:01:27.051Z,5.23
2023-03-27T15:04:32.638Z,4.82
2023-03-27T15:07:37.729Z,5.20
2023-03-27T15:10:52.486Z,4.60
2023-03-27T15:14:01.755Z,4.80
2023-03-27T15:17:09.733Z,4.63
2023-03-27T15:20:15.177Z,4.00
2023-03-27T15:23:24.257Z,4.75
2023-03-27T15:26:31.564Z,5.85
2023-03-27T15:29:40.830Z,7.23
